createdAt,value
2023-04-07T00:03:50.173Z,99.90
2023-04-07T00:07:56.852Z,99.90
2023-04-07T00:11:57.693Z,99.90
2023-04-07T00:15:58.054Z,99.90
2023-04-07T00:19:58.336Z,99.90
2023-04-07T00:24:01.225Z,99.90
2023-04-07T00:28:01.409Z,99.90
2023-04-07T00:32:01.773Z,99.90
2023-04-07T00:36:02.367Z,99.90
2023-04-07T00:40:05.342Z,99.90
2023-04-07T00:44:06.057Z,99.90
2023-04-07T00:48:07.059Z,99.90
2023-04-07T00:52:08.754Z,99.90
2023-04-07T00:56:11.967Z,99.90
2023-04-07T01:00:14.136Z,99.90
2023-04-07T01:04:29.738Z,99.90
2023-04-07T01:08:41.459Z,99.90
2023-04-07T01:12:55.872Z,99.90
2023-04-07T01:17:01.108Z,99.90
2023-04-07T01:21:09.455Z,99.90
2023-04-07T01:25:41.754Z,99.90
2023-04-07T01:29:50.795Z,99.90
2023-04-07T01:33:54.171Z,99.90
2023-04-07T01:37:58.242Z,99.90
2023-04-07T01:42:02.660Z,99.90
2023-04-07T01:46:07.593Z,99.90
2023-04-07T01:50:10.386Z,99.90
2023-04-07T01:54:12.489Z,99.90
2023-04-07T01:58:12.822Z,99.90
2023-04-07T02:02:18.858Z,99.90
2023-04-07T02:06:25.224Z,99.90
2023-04-07T02:10:29.986Z,99.90
2023-04-07T02:14:33.257Z,99.90
2023-04-07T02:18:41.943Z,99.90
2023-04-07T02:22:45.086Z,99.90
2023-04-07T02:26:46.396Z,99.90
2023-04-07T02:30:46.990Z,99.90
2023-04-07T02:34:49.793Z,99.90
2023-04-07T02:38:50.032Z,99.90
2023-04-07T02:42:50.504Z,99.90
2023-04-07T02:46:50.645Z,99.90
2023-04-07T02:50:53.563Z,99.90
2023-04-07T02:54:54.063Z,99.90
2023-04-07T02:58:58.254Z,99.90
2023-04-07T03:02:59.320Z,99.90
2023-04-07T03:07:05.014Z,99.90
2023-04-07T03:11:06.588Z,99.90
2023-04-07T03:15:08.102Z,99.90
2023-04-07T03:19:09.153Z,99.90
2023-04-07T03:23:16.252Z,99.90
2023-04-07T03:27:17.657Z,99.90
2023-04-07T03:31:20.580Z,99.90
2023-04-07T03:35:23.935Z,99.90
2023-04-07T03:39:27.038Z,99.90
2023-04-07T03:43:31.278Z,99.90
2023-04-07T03:47:31.832Z,99.90
2023-04-07T03:51:35.215Z,99.90
2023-04-07T03:55:42.003Z,99.90
2023-04-07T03:59:51.488Z,99.90
2023-04-07T04:03:53.587Z,99.90
2023-04-07T04:07:59.836Z,99.90
2023-04-07T04:12:04.092Z,99.90
2023-04-07T04:16:05.606Z,99.90
2023-04-07T04:20:07.953Z,99.90
2023-04-07T04:24:21.392Z,99.90
2023-04-07T04:28:25.083Z,99.90
2023-04-07T04:32:25.643Z,99.90
2023-04-07T04:36:26.549Z,99.90
2023-04-07T04:40:31.985Z,99.90
2023-04-07T04:44:35.533Z,99.90
2023-04-07T04:48:37.379Z,99.90
2023-04-07T04:52:40.802Z,99.90
2023-04-07T04:56:45.832Z,99.90
2023-04-07T05:00:48.763Z,99.90
2023-04-07T05:04:49.170Z,99.90
2023-04-07T05:08:58.809Z,99.90
2023-04-07T05:13:04.850Z,99.90
2023-04-07T05:17:07.738Z,99.90
2023-04-07T05:21:08.479Z,99.90
2023-04-07T05:25:12.470Z,99.90
2023-04-07T05:29:15.425Z,99.90
2023-04-07T05:33:18.471Z,99.90
2023-04-07T05:37:23.109Z,99.90
2023-04-07T05:41:23.972Z,99.90
2023-04-07T05:45:24.682Z,99.90
2023-04-07T05:49:27.958Z,99.90
2023-04-07T05:53:41.046Z,99.90
2023-04-07T05:57:42.437Z,99.90
2023-04-07T06:01:48.713Z,99.90
2023-04-07T06:05:52.695Z,99.90
2023-04-07T06:09:54.723Z,99.90
2023-04-07T06:13:54.953Z,99.90
2023-04-07T06:17:56.370Z,99.90
2023-04-07T06:22:00.792Z,99.90
2023-04-07T06:26:01.202Z,99.90
2023-04-07T06:30:03.144Z,99.90
2023-04-07T06:34:03.496Z,99.90
2023-04-07T06:38:06.550Z,99.90
2023-04-07T06:42:06.862Z,99.90
2023-04-07T06:46:12.367Z,99.90
2023-04-07T06:50:13.492Z,99.90
2023-04-07T06:54:16.471Z,99.90
2023-04-07T06:58:16.722Z,99.90
2023-04-07T07:02:17.002Z,99.90
2023-04-07T07:06:17.343Z,99.90
2023-04-07T07:10:20.728Z,99.90
2023-04-07T07:14:21.004Z,99.90
2023-04-07T07:18:22.329Z,99.90
2023-04-07T07:22:22.626Z,99.90
2023-04-07T07:26:26.499Z,99.90
2023-04-07T07:30:28.026Z,99.90
2023-04-07T07:34:28.402Z,99.90
2023-04-07T07:38:28.705Z,99.90
2023-04-07T07:42:32.613Z,99.90
2023-04-07T07:46:32.854Z,99.90
2023-04-07T07:50:33.446Z,99.90
2023-04-07T07:54:33.687Z,99.90
2023-04-07T07:58:36.734Z,99.90
2023-04-07T08:02:37.776Z,99.90
2023-04-07T08:06:38.298Z,99.90
2023-04-07T08:10:38.615Z,99.90
2023-04-07T08:14:41.510Z,99.90
2023-04-07T08:18:41.779Z,99.90
2023-04-07T08:22:43.259Z,99.90
2023-04-07T08:26:43.620Z,99.90
2023-04-07T08:30:46.628Z,99.90
2023-04-07T08:34:47.075Z,99.90
2023-04-07T08:38:47.225Z,99.90
2023-04-07T08:42:52.962Z,99.90
2023-04-07T08:47:01.040Z,99.90
2023-04-07T08:51:04.532Z,99.90
2023-04-07T08:55:07.171Z,99.90
2023-04-07T08:59:09.884Z,99.90
2023-04-07T09:03:14.177Z,99.90
2023-04-07T09:07:14.456Z,99.90
2023-04-07T09:22:01.153Z,93.50
2023-04-07T09:26:06.452Z,91.40
2023-04-07T09:30:16.475Z,90.50
2023-04-07T09:34:30.329Z,89.60
2023-04-07T09:38:44.649Z,89.10
2023-04-07T09:42:51.103Z,87.60
2023-04-07T09:46:56.653Z,89.90
2023-04-07T09:51:10.207Z,86.00
2023-04-07T09:55:14.995Z,82.90
2023-04-07T09:59:19.540Z,83.20
2023-04-07T10:03:21.304Z,79.70
2023-04-07T10:07:24.832Z,80.80
2023-04-07T10:11:35.738Z,79.10
2023-04-07T10:15:40.201Z,79.70
2023-04-07T10:19:42.187Z,78.90
2023-04-07T10:23:59.470Z,74.00
2023-04-07T10:28:09.840Z,70.20
2023-04-07T10:32:12.314Z,64.70
2023-04-07T10:36:13.064Z,63.50
2023-04-07T10:40:32.872Z,63.00
2023-04-07T10:44:54.916Z,61.30
2023-04-07T10:49:15.130Z,59.00
2023-04-07T10:53:19.031Z,57.00
2023-04-07T10:57:21.580Z,51.70
2023-04-07T11:01:25.310Z,50.20
2023-04-07T11:05:27.926Z,51.10
2023-04-07T11:09:28.378Z,50.60
2023-04-07T11:13:32.713Z,50.40
2023-04-07T11:17:37.881Z,49.20
2023-04-07T11:21:39.070Z,48.80
2023-04-07T11:25:41.965Z,47.10
2023-04-07T11:29:44.374Z,46.60
2023-04-07T11:33:57.857Z,46.80
2023-04-07T11:38:03.740Z,45.40
2023-04-07T11:42:06.960Z,44.60
2023-04-07T11:46:10.194Z,46.50
2023-04-07T11:50:15.154Z,47.30
2023-04-07T11:54:17.775Z,46.30
2023-04-07T11:58:20.248Z,46.70
2023-04-07T12:02:37.813Z,46.60
2023-04-07T12:06:42.801Z,44.10
2023-04-07T12:10:45.016Z,42.40
2023-04-07T12:14:45.534Z,40.00
2023-04-07T12:18:48.712Z,37.70
2023-04-07T12:22:51.749Z,39.30
2023-04-07T12:26:53.225Z,40.80
2023-04-07T12:30:54.168Z,40.80
2023-04-07T12:34:55.772Z,42.00
2023-04-07T12:39:01.475Z,41.80
2023-04-07T12:43:03.945Z,40.40
2023-04-07T12:47:06.890Z,39.00
2023-04-07T12:51:08.191Z,39.20
2023-04-07T12:55:15.238Z,40.10
2023-04-07T12:59:17.209Z,39.60
2023-04-07T13:03:18.100Z,39.20
2023-04-07T13:07:20.102Z,39.00
2023-04-07T13:11:24.881Z,38.50
2023-04-07T13:15:26.638Z,39.20
2023-04-07T13:19:30.436Z,41.10
2023-04-07T13:23:53.517Z,42.50
2023-04-07T13:27:56.720Z,41.60
2023-04-07T13:32:09.972Z,40.50
2023-04-07T13:36:10.992Z,41.10
2023-04-07T13:40:12.910Z,41.60
2023-04-07T13:44:15.658Z,41.20
2023-04-07T13:48:17.562Z,40.90
2023-04-07T13:52:20.228Z,39.80
2023-04-07T13:56:27.318Z,40.60
2023-04-07T14:00:36.048Z,42.60
2023-04-07T14:04:37.774Z,43.90
2023-04-07T14:08:40.184Z,44.70
2023-04-07T14:12:44.321Z,45.10
2023-04-07T14:16:48.552Z,44.10
2023-04-07T14:20:52.679Z,42.70
2023-04-07T14:24:57.799Z,39.40
2023-04-07T14:29:00.825Z,39.50
2023-04-07T14:33:10.263Z,38.90
2023-04-07T14:37:12.371Z,35.90
2023-04-07T14:41:15.606Z,36.90
2023-04-07T14:45:17.114Z,35.40
2023-04-07T14:49:23.338Z,35.40
2023-04-07T14:53:33.541Z,37.00
2023-04-07T14:57:40.005Z,34.80
2023-04-07T15:01:43.415Z,35.00
2023-04-07T15:05:52.527Z,34.10
2023-04-07T15:09:52.987Z,33.50
2023-04-07T15:13:53.323Z,32.30
2023-04-07T15:17:53.570Z,32.80
2023-04-07T15:21:56.753Z,32.40
2023-04-07T15:25:58.073Z,32.70
2023-04-07T15:29:58.916Z,34.20
2023-04-07T15:33:59.073Z,37.10
2023-04-07T15:38:01.855Z,36.60
2023-04-07T15:42:02.179Z,37.80
2023-04-07T15:46:02.638Z,38.40
2023-04-07T15:50:02.918Z,40.10
2023-04-07T15:54:05.989Z,41.40
2023-04-07T15:58:08.570Z,42.00
2023-04-07T16:02:09.211Z,41.10
2023-04-07T16:06:09.449Z,39.60
2023-04-07T16:10:14.029Z,40.70
2023-04-07T16:14:14.385Z,41.10
2023-04-07T16:18:14.905Z,40.60
2023-04-07T16:22:15.065Z,40.80
2023-04-07T16:26:17.759Z,40.60
2023-04-07T16:30:19.023Z,41.10
2023-04-07T16:34:19.286Z,41.20
2023-04-07T16:38:19.714Z,41.40
2023-04-07T16:42:22.469Z,41.50
2023-04-07T16:46:26.062Z,42.80
2023-04-07T16:50:26.439Z,43.30
2023-04-07T16:54:26.703Z,45.20
2023-04-07T16:58:29.530Z,46.90
2023-04-07T17:02:30.089Z,47.60
2023-04-07T17:06:30.540Z,48.50
2023-04-07T17:10:31.133Z,48.60
2023-04-07T17:14:34.008Z,49.20
2023-04-07T17:18:36.189Z,50.00
2023-04-07T17:22:36.634Z,51.10
2023-04-07T17:26:37.037Z,52.60
2023-04-07T17:30:40.243Z,54.20
2023-04-07T17:34:41.234Z,53.90
2023-04-07T17:38:41.585Z,54.30
2023-04-07T17:42:42.061Z,56.20
2023-04-07T17:46:44.935Z,59.00
2023-04-07T17:50:46.058Z,60.80
2023-04-07T17:54:46.423Z,61.50
2023-04-07T17:58:47.444Z,61.00
2023-04-07T18:02:50.429Z,63.90
2023-04-07T18:06:51.361Z,65.20
2023-04-07T18:10:51.793Z,67.60
2023-04-07T18:14:52.295Z,68.40
2023-04-07T18:18:55.511Z,69.40
2023-04-07T18:22:55.945Z,71.80
2023-04-07T18:26:56.958Z,73.20
2023-04-07T18:31:04.299Z,75.40
2023-04-07T18:35:08.174Z,76.40
2023-04-07T18:39:08.448Z,78.10
2023-04-07T18:43:08.641Z,79.70
2023-04-07T18:47:08.816Z,81.20
2023-04-07T18:51:12.080Z,85.00
2023-04-07T18:55:14.164Z,86.20
2023-04-07T18:59:14.834Z,89.90
2023-04-07T19:03:16.454Z,90.50
2023-04-07T19:07:19.605Z,90.80
2023-04-07T19:11:20.659Z,91.90
2023-04-07T19:15:21.607Z,92.90
2023-04-07T19:19:21.972Z,94.20
2023-04-07T19:23:25.590Z,93.90
2023-04-07T19:27:27.442Z,95.10
2023-04-07T19:31:28.228Z,95.60
2023-04-07T19:35:28.728Z,96.50
2023-04-07T19:39:31.916Z,96.70
2023-04-07T19:43:32.221Z,97.20
2023-04-07T19:47:32.595Z,98.90
2023-04-07T19:51:33.225Z,99.20
2023-04-07T19:55:36.171Z,99.90
2023-04-07T20:17:29.840Z,99.90
2023-04-07T20:27:17.392Z,99.90
2023-04-07T20:40:34.716Z,99.90
2023-04-07T20:54:56.807Z,99.90
2023-04-07T21:04:24.787Z,99.90
2023-04-07T21:09:03.245Z,99.90
2023-04-07T21:18:49.627Z,99.90
2023-04-07T21:29:00.650Z,99.90
2023-04-07T21:43:00.791Z,99.90
2023-04-07T21:47:32.396Z,99.90
2023-04-07T21:52:03.977Z,99.90
2023-04-07T21:56:33.985Z,99.90
2023-04-07T22:05:40.713Z,99.90
2023-04-07T22:09:41.493Z,99.90
2023-04-07T22:13:48.670Z,99.90
2023-04-07T22:17:48.922Z,99.90
2023-04-07T22:21:52.212Z,99.90
2023-04-07T22:25:52.832Z,99.90
2023-04-07T22:29:53.033Z,99.90
2023-04-07T22:33:53.207Z,99.90
2023-04-07T22:37:56.005Z,99.90
2023-04-07T22:41:56.378Z,99.90
2023-04-07T22:45:56.853Z,99.90
2023-04-07T22:49:57.694Z,99.90
2023-04-07T22:54:00.654Z,99.90
2023-04-07T22:58:00.999Z,99.90
2023-04-07T23:02:01.304Z,99.90
2023-04-07T23:06:02.811Z,99.90
2023-04-07T23:10:06.532Z,99.90
2023-04-07T23:14:07.705Z,99.90
2023-04-07T23:18:07.943Z,99.90
2023-04-07T23:22:08.102Z,99.90
2023-04-07T23:26:10.926Z,99.90
2023-04-07T23:30:13.187Z,99.90
2023-04-07T23:34:13.699Z,99.90
2023-04-07T23:38:13.835Z,99.90
2023-04-07T23:42:18.140Z,99.90
2023-04-07T23:46:19.217Z,99.90
2023-04-07T23:50:19.984Z,99.90
2023-04-07T23:54:20.136Z,99.90
2023-04-07T23:58:22.864Z,99.90
